createdAt,value
2018-09-12T00:00:18.169Z,15.80
2018-09-12T00:02:46.285Z,15.80
2018-09-12T00:05:15.094Z,15.80
2018-09-12T00:07:43.226Z,15.80
2018-09-12T00:10:12.267Z,15.80
2018-09-12T00:19:41.218Z,15.70
2018-09-12T00:22:10.223Z,15.60
2018-09-12T00:24:38.842Z,15.60
2018-09-12T00:27:07.070Z,15.60
2018-09-12T00:29:35.212Z,15.70
2018-09-12T00:32:03.786Z,15.60
2018-09-12T00:34:32.097Z,15.60
2018-09-12T00:37:01.706Z,15.60
2018-09-12T00:39:30.525Z,15.60
2018-09-12T00:42:00.106Z,15.50
2018-09-12T00:44:29.453Z,15.50
2018-09-12T00:46:57.797Z,15.60
2018-09-12T00:49:25.945Z,15.50
2018-09-12T00:51:54.937Z,15.50
2018-09-12T00:54:23.701Z,15.40
2018-09-12T00:56:52.161Z,15.40
2018-09-12T00:59:20.601Z,15.40
2018-09-12T01:01:49.843Z,15.40
2018-09-12T01:04:18.890Z,15.30
2018-09-12T01:06:47.045Z,15.30
2018-09-12T01:09:16.072Z,15.30
2018-09-12T01:11:45.193Z,15.30
2018-09-12T01:14:13.718Z,15.30
2018-09-12T01:16:42.554Z,15.30
2018-09-12T01:19:10.720Z,15.30
2018-09-12T01:21:39.518Z,15.30
2018-09-12T01:24:08.050Z,15.30
2018-09-12T01:26:36.946Z,15.30
2018-09-12T01:29:07.041Z,15.20
2018-09-12T01:31:35.278Z,15.20
2018-09-12T01:34:03.837Z,15.20
2018-09-12T01:36:32.465Z,15.10
2018-09-12T01:39:00.818Z,15.10
2018-09-12T01:41:29.069Z,15.20
2018-09-12T01:43:57.451Z,15.20
2018-09-12T01:46:26.338Z,15.10
2018-09-12T01:48:54.420Z,15.10
2018-09-12T01:51:23.150Z,15.00
2018-09-12T01:53:52.139Z,15.00
2018-09-12T01:56:20.925Z,14.90
2018-09-12T01:58:49.917Z,14.90
2018-09-12T02:01:19.357Z,14.80
2018-09-12T02:03:48.761Z,14.70
2018-09-12T02:06:17.068Z,14.50
2018-09-12T02:08:46.077Z,14.40
2018-09-12T02:11:15.981Z,14.30
2018-09-12T02:13:44.126Z,14.30
2018-09-12T02:16:13.914Z,14.20
2018-09-12T02:18:42.037Z,14.30
2018-09-12T02:21:10.303Z,14.30
2018-09-12T02:23:38.634Z,14.20
2018-09-12T02:26:07.032Z,14.20
2018-09-12T02:28:35.270Z,14.20
2018-09-12T02:31:04.228Z,14.20
2018-09-12T02:33:33.056Z,14.20
2018-09-12T02:36:07.873Z,14.20
2018-09-12T02:38:36.338Z,14.20
2018-09-12T02:41:04.427Z,14.30
2018-09-12T02:43:33.484Z,14.30
2018-09-12T02:46:02.867Z,14.30
2018-09-12T02:48:31.085Z,14.30
2018-09-12T02:50:59.789Z,14.20
2018-09-12T02:53:28.354Z,14.20
2018-09-12T02:55:56.524Z,14.20
2018-09-12T02:58:25.378Z,14.20
2018-09-12T03:00:53.997Z,14.10
2018-09-12T03:03:23.378Z,14.10
2018-09-12T03:05:52.510Z,14.10
2018-09-12T03:08:21.035Z,14.20
2018-09-12T03:10:50.311Z,14.10
2018-09-12T03:13:18.485Z,14.10
2018-09-12T03:15:46.649Z,14.10
2018-09-12T03:18:15.421Z,14.20
2018-09-12T03:20:43.647Z,14.10
2018-09-12T03:23:11.711Z,14.10
2018-09-12T03:25:40.565Z,14.10
2018-09-12T03:28:08.718Z,14.10
2018-09-12T03:30:36.949Z,14.10
2018-09-12T03:33:06.440Z,14.00
2018-09-12T03:35:34.509Z,14.10
2018-09-12T03:38:03.513Z,14.10
2018-09-12T03:40:32.333Z,14.10
2018-09-12T03:43:00.752Z,14.10
2018-09-12T03:45:29.334Z,14.10
2018-09-12T03:47:58.842Z,14.00
2018-09-12T03:50:27.041Z,14.00
2018-09-12T03:52:56.213Z,14.00
2018-09-12T03:55:24.461Z,14.00
2018-09-12T03:57:53.378Z,14.00
2018-09-12T04:00:21.469Z,14.00
2018-09-12T04:02:50.851Z,14.00
2018-09-12T04:05:19.245Z,13.90
2018-09-12T04:07:48.577Z,13.90
2018-09-12T04:10:16.975Z,13.90
2018-09-12T04:12:46.222Z,13.90
2018-09-12T04:15:15.299Z,14.00
2018-09-12T04:17:43.478Z,13.90
2018-09-12T04:20:13.302Z,13.90
2018-09-12T04:22:41.517Z,14.00
2018-09-12T04:25:10.543Z,13.90
2018-09-12T04:27:38.806Z,13.90
2018-09-12T04:30:07.446Z,13.90
2018-09-12T04:32:36.151Z,14.00
2018-09-12T04:35:05.496Z,14.00
2018-09-12T04:37:33.823Z,14.00
2018-09-12T04:40:01.982Z,14.00
2018-09-12T04:42:30.149Z,14.10
2018-09-12T04:45:00.781Z,14.10
2018-09-12T04:47:29.047Z,14.10
2018-09-12T04:49:58.686Z,14.10
2018-09-12T04:52:27.677Z,14.10
2018-09-12T04:54:56.031Z,14.10
2018-09-12T04:57:25.640Z,14.00
2018-09-12T04:59:53.891Z,14.10
2018-09-12T05:02:23.355Z,14.10
2018-09-12T05:04:52.217Z,14.10
2018-09-12T05:07:20.510Z,14.00
2018-09-12T05:09:49.520Z,13.90
2018-09-12T05:12:19.061Z,13.90
2018-09-12T05:14:47.470Z,14.00
2018-09-12T05:17:16.054Z,14.00
2018-09-12T05:19:45.074Z,14.10
2018-09-12T05:22:13.259Z,14.00
2018-09-12T05:24:41.870Z,14.00
2018-09-12T05:27:10.397Z,14.10
2018-09-12T05:29:39.520Z,14.10
2018-09-12T05:32:09.891Z,14.00
2018-09-12T05:34:40.691Z,14.10
2018-09-12T05:37:09.510Z,14.00
2018-09-12T05:39:38.151Z,14.00
2018-09-12T05:42:07.066Z,14.00
2018-09-12T05:44:35.509Z,14.10
2018-09-12T05:48:07.519Z,14.00
2018-09-12T05:50:35.961Z,14.00
2018-09-12T05:53:04.357Z,14.00
2018-09-12T05:55:33.346Z,13.90
2018-09-12T05:58:02.633Z,13.90
2018-09-12T06:00:31.298Z,13.90
2018-09-12T06:03:00.481Z,13.90
2018-09-12T06:05:29.534Z,13.90
2018-09-12T06:07:57.640Z,13.90
2018-09-12T06:10:25.751Z,13.90
2018-09-12T06:12:54.696Z,13.80
2018-09-12T06:15:23.640Z,13.90
2018-09-12T06:17:54.498Z,13.90
2018-09-12T06:20:23.593Z,13.90
2018-09-12T06:22:51.789Z,13.90
2018-09-12T06:25:21.663Z,14.00
2018-09-12T06:27:50.086Z,14.00
2018-09-12T06:30:18.661Z,13.90
2018-09-12T06:32:46.749Z,14.00
2018-09-12T06:35:15.709Z,14.00
2018-09-12T06:37:44.069Z,14.10
2018-09-12T06:40:12.657Z,14.20
2018-09-12T06:42:42.562Z,14.20
2018-09-12T06:45:11.686Z,14.10
2018-09-12T06:47:40.151Z,14.10
2018-09-12T06:50:08.565Z,14.10
2018-09-12T06:52:36.795Z,14.00
2018-09-12T06:55:06.022Z,14.10
2018-09-12T06:57:34.218Z,14.10
2018-09-12T07:00:02.373Z,14.30
2018-09-12T07:02:31.225Z,14.40
2018-09-12T07:05:00.457Z,14.30
2018-09-12T07:07:29.444Z,14.20
2018-09-12T07:09:57.621Z,14.20
2018-09-12T07:12:26.917Z,14.30
2018-09-12T07:14:55.086Z,14.30
2018-09-12T07:17:23.259Z,14.30
2018-09-12T07:19:51.482Z,14.30
2018-09-12T07:22:19.618Z,14.40
2018-09-12T07:24:48.719Z,14.30
2018-09-12T07:27:17.297Z,14.30
2018-09-12T07:29:46.181Z,14.30
2018-09-12T07:32:14.394Z,14.40
2018-09-12T07:34:42.691Z,14.50
2018-09-12T07:37:10.833Z,14.50
2018-09-12T07:39:39.692Z,14.60
2018-09-12T07:42:08.686Z,14.70
2018-09-12T07:44:36.769Z,14.70
2018-09-12T07:47:06.385Z,14.80
2018-09-12T07:51:04.574Z,15.00
2018-09-12T07:53:33.322Z,15.10
2018-09-12T07:56:02.185Z,15.40
2018-09-12T07:58:31.245Z,15.30
2018-09-12T08:01:01.415Z,15.20
2018-09-12T08:03:29.585Z,15.20
2018-09-12T08:05:57.806Z,15.30
2018-09-12T08:08:26.506Z,15.30
2018-09-12T08:10:54.603Z,15.30
2018-09-12T08:13:23.868Z,15.30
2018-09-12T08:15:52.374Z,15.40
2018-09-12T08:18:20.493Z,15.50
2018-09-12T08:20:48.737Z,15.60
2018-09-12T08:23:17.228Z,15.80
2018-09-12T08:25:45.963Z,15.80
2018-09-12T08:28:14.141Z,15.80
2018-09-12T08:30:46.245Z,15.70
2018-09-12T08:33:14.414Z,15.50
2018-09-12T08:35:43.477Z,15.50
2018-09-12T08:38:11.751Z,15.70
2018-09-12T08:40:40.377Z,15.90
2018-09-12T08:43:08.716Z,15.80
2018-09-12T08:45:37.178Z,15.70
2018-09-12T08:48:05.411Z,15.60
2018-09-12T08:50:33.526Z,15.60
2018-09-12T08:53:01.803Z,15.60
2018-09-12T08:55:29.842Z,15.40
2018-09-12T08:57:58.198Z,15.70
2018-09-12T09:00:31.590Z,15.30
2018-09-12T09:03:00.648Z,15.20
2018-09-12T09:05:30.337Z,15.20
2018-09-12T09:07:59.069Z,15.20
2018-09-12T09:10:28.281Z,15.20
2018-09-12T09:12:57.993Z,15.20
2018-09-12T09:15:32.445Z,15.40
2018-09-12T09:18:00.589Z,15.60
2018-09-12T09:20:30.285Z,15.60
2018-09-12T09:22:59.162Z,15.70
2018-09-12T09:25:27.666Z,15.60
2018-09-12T09:27:56.190Z,15.50
2018-09-12T09:30:27.675Z,15.50
2018-09-12T09:32:56.369Z,15.30
2018-09-12T09:35:24.811Z,15.30
2018-09-12T09:37:52.954Z,15.30
2018-09-12T09:40:21.478Z,15.30
2018-09-12T09:42:50.049Z,15.30
2018-09-12T09:45:18.191Z,15.40
2018-09-12T09:47:46.526Z,15.30
2018-09-12T09:50:15.022Z,15.30
2018-09-12T09:52:43.237Z,15.20
2018-09-12T09:55:12.006Z,15.40
2018-09-12T09:57:40.022Z,15.70
2018-09-12T10:00:15.852Z,15.90
2018-09-12T10:02:50.000Z,16.10
2018-09-12T10:05:23.834Z,16.10
2018-09-12T10:07:57.813Z,16.10
2018-09-12T10:10:26.630Z,16.00
2018-09-12T10:12:55.194Z,15.80
2018-09-12T10:15:24.841Z,15.70
2018-09-12T10:17:54.300Z,15.70
2018-09-12T10:20:22.400Z,15.70
2018-09-12T10:22:50.757Z,15.70
2018-09-12T10:25:18.829Z,15.70
2018-09-12T10:27:47.546Z,15.60
2018-09-12T10:30:16.261Z,15.70
2018-09-12T10:32:44.689Z,15.70
2018-09-12T10:35:12.908Z,15.80
2018-09-12T10:37:41.261Z,15.80
2018-09-12T10:40:10.154Z,16.10
2018-09-12T10:42:39.449Z,16.20
2018-09-12T10:45:08.090Z,16.20
2018-09-12T10:47:37.850Z,16.30
2018-09-12T10:50:06.843Z,16.40
2018-09-12T10:52:35.904Z,16.60
2018-09-12T10:55:04.689Z,16.70
2018-09-12T10:57:33.317Z,16.90
2018-09-12T11:00:02.145Z,17.40
2018-09-12T11:02:32.046Z,17.70
2018-09-12T11:05:00.253Z,17.70
2018-09-12T11:07:29.029Z,17.40
2018-09-12T11:09:57.366Z,16.90
2018-09-12T11:12:27.417Z,16.70
2018-09-12T11:14:57.089Z,16.70
2018-09-12T11:17:25.881Z,16.50
2018-09-12T11:19:54.116Z,16.60
2018-09-12T11:22:22.709Z,16.60
2018-09-12T11:24:51.489Z,16.90
2018-09-12T11:27:19.893Z,17.10
2018-09-12T11:29:48.372Z,17.10
2018-09-12T11:32:16.729Z,16.90
2018-09-12T11:34:45.801Z,17.00
2018-09-12T11:37:15.881Z,17.00
2018-09-12T11:39:45.034Z,17.20
2018-09-12T11:42:13.137Z,17.10
2018-09-12T11:44:41.871Z,16.90
2018-09-12T11:47:10.345Z,16.70
2018-09-12T11:49:38.661Z,16.60
2018-09-12T11:52:08.073Z,16.60
2018-09-12T11:54:37.165Z,16.70
2018-09-12T11:57:06.477Z,16.80
2018-09-12T11:59:35.084Z,16.80
2018-09-12T12:02:03.677Z,16.70
2018-09-12T12:04:31.973Z,16.40
2018-09-12T12:07:00.130Z,16.30
2018-09-12T12:09:28.365Z,16.50
2018-09-12T12:11:58.729Z,16.40
2018-09-12T12:14:27.457Z,16.30
2018-09-12T12:16:55.537Z,16.20
2018-09-12T12:19:23.642Z,16.10
2018-09-12T12:21:52.822Z,16.00
2018-09-12T12:24:21.047Z,16.00
2018-09-12T12:26:49.246Z,15.70
2018-09-12T12:29:17.382Z,15.50
2018-09-12T12:31:46.726Z,15.50
2018-09-12T12:34:16.218Z,15.70
2018-09-12T12:36:44.361Z,15.80
2018-09-12T12:39:13.849Z,15.90
2018-09-12T12:41:42.033Z,16.10
2018-09-12T12:44:10.398Z,16.30
2018-09-12T12:46:39.537Z,16.60
2018-09-12T12:49:07.618Z,16.60
2018-09-12T12:51:36.900Z,16.40
2018-09-12T12:54:05.297Z,16.20
2018-09-12T12:56:34.670Z,15.90
2018-09-12T12:59:03.084Z,15.80
2018-09-12T13:01:31.237Z,15.70
2018-09-12T13:03:59.733Z,16.00
2018-09-12T13:06:28.323Z,16.40
2018-09-12T13:08:57.844Z,16.40
2018-09-12T13:11:25.969Z,16.40
2018-09-12T13:13:54.818Z,16.00
2018-09-12T13:16:24.618Z,15.80
2018-09-12T13:18:52.757Z,15.80
2018-09-12T13:21:21.137Z,15.60
2018-09-12T13:23:49.378Z,15.50
2018-09-12T13:26:17.825Z,15.40
2018-09-12T13:28:45.908Z,15.30
2018-09-12T13:31:14.065Z,15.30
2018-09-12T13:33:42.219Z,15.20
2018-09-12T13:36:10.825Z,15.20
2018-09-12T13:38:40.581Z,15.20
2018-09-12T13:41:09.575Z,15.00
2018-09-12T13:43:37.781Z,15.00
2018-09-12T13:46:06.797Z,14.90
2018-09-12T13:48:34.917Z,14.90
2018-09-12T13:51:03.559Z,14.90
2018-09-12T13:53:32.434Z,15.00
2018-09-12T13:56:00.651Z,15.00
2018-09-12T13:58:30.199Z,15.00
2018-09-12T14:00:58.789Z,15.00
2018-09-12T14:03:28.418Z,15.00
2018-09-12T14:05:57.707Z,15.00
2018-09-12T14:08:27.195Z,15.10
2018-09-12T14:10:55.721Z,15.20
2018-09-12T14:13:24.397Z,15.30
2018-09-12T14:15:52.529Z,15.50
2018-09-12T14:18:20.637Z,15.70
2018-09-12T14:20:49.492Z,15.80
2018-09-12T14:23:18.269Z,15.90
2018-09-12T14:25:47.314Z,15.90
2018-09-12T14:28:15.690Z,15.90
2018-09-12T14:30:45.297Z,15.80
2018-09-12T14:33:14.026Z,15.70
2018-09-12T14:35:42.473Z,15.60
2018-09-12T14:38:10.886Z,15.70
2018-09-12T14:40:39.025Z,15.80
2018-09-12T14:43:07.313Z,15.80
2018-09-12T14:45:35.768Z,15.60
2018-09-12T14:48:05.170Z,15.50
2018-09-12T14:50:33.801Z,15.50
2018-09-12T14:53:02.159Z,15.40
2018-09-12T14:55:30.853Z,15.40
2018-09-12T14:57:59.063Z,15.50
2018-09-12T15:00:28.102Z,15.60
2018-09-12T15:02:59.028Z,15.70
2018-09-12T15:05:27.966Z,15.80
2018-09-12T15:07:57.226Z,15.80
2018-09-12T15:10:26.523Z,15.90
2018-09-12T15:12:55.309Z,15.70
2018-09-12T15:15:23.970Z,15.50
2018-09-12T15:17:52.397Z,15.40
2018-09-12T15:20:21.070Z,15.40
2018-09-12T15:22:50.034Z,15.40
2018-09-12T15:25:18.457Z,15.30
2018-09-12T15:27:47.349Z,15.20
2018-09-12T15:30:15.595Z,15.20
2018-09-12T15:32:43.850Z,15.10
2018-09-12T15:35:12.686Z,15.20
2018-09-12T15:37:41.733Z,15.10
2018-09-12T15:40:10.142Z,15.10
2018-09-12T15:42:38.710Z,15.10
2018-09-12T15:45:06.792Z,15.10
2018-09-12T15:47:35.367Z,15.20
2018-09-12T15:50:04.719Z,15.20
2018-09-12T15:52:32.825Z,15.10
2018-09-12T15:55:02.355Z,15.20
2018-09-12T15:57:30.990Z,15.30
2018-09-12T15:59:59.141Z,15.20
2018-09-12T16:02:27.745Z,15.20
2018-09-12T16:04:56.477Z,15.20
2018-09-12T16:07:24.556Z,15.20
2018-09-12T16:09:53.849Z,15.20
2018-09-12T16:12:23.070Z,15.20
2018-09-12T16:14:51.476Z,15.10
2018-09-12T16:17:19.962Z,15.10
2018-09-12T16:19:48.574Z,15.00
2018-09-12T16:22:17.017Z,14.90
2018-09-12T16:24:46.270Z,14.80
2018-09-12T16:27:14.626Z,14.80
2018-09-12T16:29:42.921Z,14.70
2018-09-12T16:32:11.613Z,14.70
2018-09-12T16:34:40.440Z,14.60
2018-09-12T16:37:10.393Z,14.60
2018-09-12T16:39:38.667Z,14.60
2018-09-12T16:42:07.454Z,14.60
2018-09-12T16:44:36.600Z,14.50
2018-09-12T16:47:04.850Z,14.50
2018-09-12T16:49:34.617Z,14.40
2018-09-12T16:52:03.766Z,14.30
2018-09-12T16:54:32.371Z,14.40
2018-09-12T16:57:00.955Z,14.30
2018-09-12T16:59:30.042Z,14.20
2018-09-12T17:01:58.557Z,14.20
2018-09-12T17:04:28.173Z,14.20
2018-09-12T17:06:57.145Z,14.10
2018-09-12T17:09:25.905Z,14.10
2018-09-12T17:11:54.634Z,14.00
2018-09-12T17:14:23.402Z,14.00
2018-09-12T17:16:52.651Z,14.00
2018-09-12T17:19:21.845Z,13.90
2018-09-12T17:21:50.114Z,13.70
2018-09-12T17:24:18.307Z,13.70
2018-09-12T17:26:46.412Z,13.70
2018-09-12T17:29:14.777Z,13.70
2018-09-12T17:31:42.995Z,13.70
2018-09-12T17:34:11.997Z,13.70
2018-09-12T17:36:40.154Z,13.60
2018-09-12T17:39:09.965Z,13.50
2018-09-12T17:41:38.722Z,13.50
2018-09-12T17:44:07.470Z,13.40
2018-09-12T17:46:35.941Z,13.40
2018-09-12T17:49:04.968Z,13.30
2018-09-12T17:51:33.374Z,13.30
2018-09-12T17:54:02.557Z,13.30
2018-09-12T17:56:31.506Z,13.30
2018-09-12T17:58:59.993Z,13.30
2018-09-12T18:02:31.123Z,13.20
2018-09-12T18:05:00.161Z,13.20
2018-09-12T18:07:28.986Z,13.20
2018-09-12T18:09:57.727Z,13.20
2018-09-12T18:12:26.234Z,13.20
2018-09-12T18:14:54.766Z,13.10
2018-09-12T18:17:24.138Z,13.00
2018-09-12T18:19:52.440Z,12.90
2018-09-12T18:22:21.873Z,12.90
2018-09-12T18:24:50.066Z,12.90
2018-09-12T18:27:18.130Z,12.90
2018-09-12T18:29:47.028Z,12.90
2018-09-12T18:32:15.158Z,12.90
2018-09-12T18:34:43.237Z,12.90
2018-09-12T18:37:12.021Z,12.90
2018-09-12T18:39:40.246Z,12.90
2018-09-12T18:42:09.280Z,12.80
2018-09-12T18:44:37.462Z,12.80
2018-09-12T18:47:06.153Z,12.70
2018-09-12T18:49:34.654Z,12.60
2018-09-12T18:52:03.773Z,12.60
2018-09-12T18:54:32.233Z,12.60
2018-09-12T18:57:00.449Z,12.60
2018-09-12T18:59:28.554Z,12.60
2018-09-12T19:01:57.805Z,12.60
2018-09-12T19:04:25.965Z,12.60
2018-09-12T19:06:54.896Z,12.50
2018-09-12T19:09:22.917Z,12.50
2018-09-12T19:11:51.072Z,12.50
2018-09-12T19:14:19.737Z,12.50
2018-09-12T19:16:48.134Z,12.50
2018-09-12T19:19:16.517Z,12.40
2018-09-12T19:21:44.585Z,12.40
2018-09-12T19:24:12.961Z,12.30
2018-09-12T19:26:41.117Z,12.30
2018-09-12T19:29:09.825Z,12.20
2018-09-12T19:31:38.028Z,12.20
2018-09-12T19:34:06.655Z,12.30
2018-09-12T19:36:34.963Z,12.40
2018-09-12T19:39:04.771Z,12.30
2018-09-12T19:41:32.925Z,12.20
2018-09-12T19:44:01.181Z,12.20
2018-09-12T19:46:29.551Z,12.10
2018-09-12T19:48:57.665Z,12.00
2018-09-12T19:51:25.732Z,12.10
2018-09-12T19:53:53.818Z,12.10
2018-09-12T19:56:22.241Z,12.20
2018-09-12T19:58:50.640Z,12.20
2018-09-12T20:01:18.757Z,12.30
2018-09-12T20:03:47.090Z,12.30
2018-09-12T20:06:16.045Z,12.30
2018-09-12T20:08:44.910Z,12.20
2018-09-12T20:11:14.174Z,12.10
2018-09-12T20:13:42.924Z,12.00
2018-09-12T20:16:11.206Z,12.00
2018-09-12T20:18:39.245Z,11.90
2018-09-12T20:21:08.149Z,11.90
2018-09-12T20:23:36.286Z,11.90
2018-09-12T20:26:04.881Z,12.00
2018-09-12T20:28:40.033Z,12.00
2018-09-12T20:31:10.150Z,12.10
2018-09-12T20:33:39.190Z,12.10
2018-09-12T20:36:07.993Z,12.10
2018-09-12T20:38:36.481Z,12.20
2018-09-12T20:41:05.115Z,12.20
2018-09-12T20:43:33.473Z,12.20
2018-09-12T20:46:01.877Z,12.10
2018-09-12T20:48:30.525Z,12.10
2018-09-12T20:50:59.181Z,12.20
2018-09-12T20:53:28.157Z,12.20
2018-09-12T20:55:56.617Z,12.20
2018-09-12T20:58:25.063Z,12.20
2018-09-12T21:00:53.879Z,12.20
2018-09-12T21:03:22.917Z,12.20
2018-09-12T21:05:51.900Z,12.20
2018-09-12T21:08:20.625Z,12.20
2018-09-12T21:10:49.937Z,12.10
2018-09-12T21:13:18.555Z,12.00
2018-09-12T21:15:48.512Z,11.90
2018-09-12T21:18:17.010Z,11.80
2018-09-12T21:20:45.961Z,11.80
2018-09-12T21:23:15.029Z,11.40
2018-09-12T21:25:43.111Z,11.80
2018-09-12T21:28:13.121Z,11.80
2018-09-12T21:30:41.338Z,11.80
2018-09-12T21:33:09.481Z,11.80
2018-09-12T21:35:37.642Z,11.80
2018-09-12T21:38:05.889Z,11.80
2018-09-12T21:40:34.837Z,11.80
2018-09-12T21:43:02.986Z,11.80
2018-09-12T21:45:32.013Z,11.80
2018-09-12T21:48:00.265Z,11.70
2018-09-12T21:50:28.673Z,11.60
2018-09-12T21:52:56.989Z,11.50
2018-09-12T21:55:26.180Z,11.50
2018-09-12T21:57:56.149Z,11.60
2018-09-12T22:00:24.341Z,11.50
2018-09-12T22:02:53.537Z,11.60
2018-09-12T22:05:22.086Z,11.70
2018-09-12T22:07:50.289Z,11.70
2018-09-12T22:10:18.762Z,11.80
2018-09-12T22:12:47.809Z,11.70
2018-09-12T22:15:16.506Z,11.70
2018-09-12T22:17:44.569Z,11.70
2018-09-12T22:20:12.869Z,11.60
2018-09-12T22:22:41.585Z,11.50
2018-09-12T22:25:10.239Z,11.40
2018-09-12T22:27:39.081Z,11.30
2018-09-12T22:30:07.990Z,11.40
2018-09-12T22:32:36.077Z,11.40
2018-09-12T22:35:04.439Z,11.50
2018-09-12T22:37:33.004Z,11.50
2018-09-12T22:40:01.747Z,11.50
2018-09-12T22:42:29.909Z,11.50
2018-09-12T22:45:00.469Z,11.50
2018-09-12T22:47:28.889Z,11.50
2018-09-12T22:49:56.989Z,11.40
2018-09-12T22:52:26.389Z,11.40
2018-09-12T22:54:54.814Z,11.30
2018-09-12T22:57:22.970Z,11.30
2018-09-12T22:59:51.203Z,11.20
2018-09-12T23:02:19.557Z,11.20
2018-09-12T23:04:47.706Z,11.10
2018-09-12T23:07:16.042Z,11.10
2018-09-12T23:09:44.293Z,11.10
2018-09-12T23:12:12.610Z,11.00
2018-09-12T23:14:40.932Z,11.00
2018-09-12T23:17:09.651Z,11.00
2018-09-12T23:19:38.711Z,11.10
2018-09-12T23:22:06.852Z,11.20
2018-09-12T23:24:36.181Z,11.20
2018-09-12T23:27:05.598Z,11.30
2018-09-12T23:29:33.916Z,11.30
2018-09-12T23:32:03.897Z,11.30
2018-09-12T23:34:33.542Z,11.20
2018-09-12T23:37:02.600Z,11.20
2018-09-12T23:39:31.222Z,11.20
2018-09-12T23:42:00.445Z,11.20
2018-09-12T23:44:29.490Z,11.10
2018-09-12T23:46:58.305Z,11.10
2018-09-12T23:49:28.174Z,11.10
2018-09-12T23:51:56.322Z,11.10
2018-09-12T23:54:25.459Z,11.00
2018-09-12T23:56:53.940Z,11.00
2018-09-12T23:59:22.772Z,11.00
